createdAt,value
2018-05-04T08:03:01.522Z,2.33
2018-05-04T08:05:27.638Z,2.42
2018-05-04T08:07:53.749Z,2.62
2018-05-04T08:10:19.855Z,2.67
2018-05-04T08:12:45.966Z,2.92
2018-05-04T08:15:12.090Z,2.35
2018-05-04T08:17:38.928Z,2.28
2018-05-04T08:20:05.883Z,2.50
2018-05-04T08:22:31.914Z,2.35
2018-05-04T08:24:58.036Z,2.22
2018-05-04T08:27:24.222Z,2.05
2018-05-04T08:29:50.298Z,2.70
2018-05-04T08:32:18.298Z,2.05
2018-05-04T08:34:44.397Z,1.90
2018-05-04T08:37:10.518Z,2.28
2018-05-04T08:39:36.746Z,2.00
2018-05-04T08:42:04.079Z,2.35
2018-05-04T08:44:39.486Z,2.03
2018-05-04T08:47:05.595Z,2.30
2018-05-04T08:49:31.707Z,2.22
2018-05-04T08:51:57.814Z,2.17
2018-05-04T08:54:23.958Z,1.80
2018-05-04T08:56:50.774Z,2.17
2018-05-04T08:59:17.808Z,1.75
2018-05-04T09:01:43.740Z,1.60
2018-05-04T09:04:10.571Z,1.77
2018-05-04T09:06:36.691Z,1.70
2018-05-04T09:09:02.803Z,1.85
2018-05-04T09:11:28.862Z,1.55
2018-05-04T09:13:55.697Z,1.58
2018-05-04T09:16:22.525Z,1.80
2018-05-04T09:18:49.145Z,1.80
2018-05-04T09:21:15.230Z,1.92
2018-05-04T09:23:41.338Z,2.10
2018-05-04T09:26:08.184Z,1.62
2018-05-04T09:28:35.030Z,1.45
2018-05-04T09:31:01.913Z,2.08
2018-05-04T09:33:27.989Z,2.25
2018-05-04T09:35:54.819Z,1.75
2018-05-04T09:38:22.392Z,1.50
2018-05-04T09:40:49.226Z,1.60
2018-05-04T09:43:15.330Z,1.27
2018-05-04T09:45:41.417Z,1.40
2018-05-04T09:48:07.513Z,1.40
2018-05-04T09:50:34.348Z,1.33
2018-05-04T09:53:00.438Z,1.80
2018-05-04T09:55:26.532Z,1.80
2018-05-04T09:57:52.653Z,1.50
2018-05-04T10:00:18.757Z,1.55
2018-05-04T10:02:45.593Z,1.55
2018-05-04T10:05:11.702Z,1.37
2018-05-04T10:07:38.555Z,1.58
2018-05-04T10:10:04.661Z,1.40
2018-05-04T10:12:30.758Z,1.92
2018-05-04T10:14:56.865Z,1.85
2018-05-04T10:17:22.966Z,1.48
2018-05-04T10:20:18.555Z,1.45
2018-05-04T10:22:44.700Z,1.40
2018-05-04T10:25:10.796Z,1.50
2018-05-04T10:27:36.918Z,1.40
2018-05-04T10:30:03.044Z,1.23
2018-05-04T10:32:29.157Z,1.40
2018-05-04T10:34:55.275Z,1.70
2018-05-04T10:37:21.386Z,1.58
2018-05-04T10:39:48.815Z,3.35
2018-05-04T10:42:14.931Z,1.45
2018-05-04T10:44:41.047Z,1.37
2018-05-04T10:47:07.175Z,1.62
2018-05-04T10:49:33.983Z,1.60
2018-05-04T10:52:00.102Z,1.40
2018-05-04T10:54:26.201Z,1.70
2018-05-04T10:56:53.061Z,1.33
2018-05-04T10:59:31.726Z,1.77
2018-05-04T11:01:57.833Z,1.75
2018-05-04T11:04:23.949Z,1.80
2018-05-04T11:06:50.070Z,1.70
2018-05-04T11:09:16.164Z,1.52
2018-05-04T11:11:42.273Z,1.55
2018-05-04T11:14:08.369Z,1.75
2018-05-04T11:16:34.495Z,1.40
2018-05-04T11:19:00.592Z,1.50
2018-05-04T11:21:26.698Z,1.70
2018-05-04T11:23:53.561Z,1.73
2018-05-04T11:26:19.706Z,1.70
2018-05-04T11:28:45.811Z,1.60
2018-05-04T11:31:11.906Z,1.35
2018-05-04T11:33:38.620Z,1.52
2018-05-04T11:36:04.734Z,1.55
2018-05-04T11:38:30.850Z,1.60
2018-05-04T11:40:56.976Z,1.58
2018-05-04T11:43:43.362Z,1.60
2018-05-04T11:46:15.877Z,1.70
2018-05-04T11:48:41.990Z,1.73
2018-05-04T11:51:08.090Z,1.52
2018-05-04T11:53:34.198Z,1.80
2018-05-04T11:56:01.041Z,1.77
2018-05-04T11:58:27.888Z,1.58
2018-05-04T12:00:54.742Z,1.80
2018-05-04T12:03:20.878Z,1.58
2018-05-04T12:05:46.968Z,1.60
2018-05-04T12:08:13.049Z,1.80
2018-05-04T12:10:39.138Z,1.70
2018-05-04T12:13:05.974Z,1.48
2018-05-04T12:15:32.816Z,1.90
2018-05-04T12:17:59.646Z,1.55
2018-05-04T12:20:25.751Z,1.60
2018-05-04T12:22:53.402Z,1.77
2018-05-04T12:25:20.511Z,1.77
2018-05-04T12:28:11.518Z,1.70
2018-05-04T12:30:37.647Z,1.70
2018-05-04T12:33:04.470Z,1.73
2018-05-04T12:35:31.305Z,1.40
2018-05-04T12:37:57.394Z,1.60
2018-05-04T12:40:23.495Z,1.73
2018-05-04T12:42:49.577Z,1.52
2018-05-04T12:45:17.150Z,1.62
2018-05-04T12:47:43.982Z,1.85
2018-05-04T12:50:25.163Z,1.98
2018-05-04T12:53:22.735Z,1.70
2018-05-04T12:55:54.950Z,1.80
2018-05-04T12:58:21.049Z,1.60
2018-05-04T13:00:47.146Z,1.90
2018-05-04T13:03:13.246Z,1.40
2018-05-04T13:05:39.333Z,1.62
2018-05-04T13:08:09.550Z,2.37
2018-05-04T13:10:39.010Z,1.90
2018-05-04T13:13:05.115Z,1.98
2018-05-04T13:15:31.201Z,1.67
2018-05-04T13:17:57.299Z,2.03
2018-05-04T13:20:23.979Z,1.70
2018-05-04T13:23:03.586Z,1.70
2018-05-04T13:25:57.984Z,1.75
2018-05-04T13:28:26.894Z,1.70
2018-05-04T13:30:52.983Z,1.60
2018-05-04T13:33:19.131Z,1.70
2018-05-04T13:35:45.177Z,2.20
2018-05-04T13:38:11.274Z,2.03
2018-05-04T13:40:38.117Z,1.90
2018-05-04T13:43:04.954Z,1.70
2018-05-04T13:45:31.059Z,1.67
2018-05-04T13:54:02.398Z,1.83
2018-05-04T13:56:34.803Z,2.00
2018-05-04T13:59:21.282Z,1.80
2018-05-04T14:01:47.385Z,1.58
2018-05-04T14:04:14.243Z,1.73
2018-05-04T14:06:40.366Z,2.00
2018-05-04T14:09:06.485Z,1.75
2018-05-04T14:11:33.326Z,2.10
2018-05-04T14:14:00.177Z,1.87
2018-05-04T14:16:26.355Z,2.00
2018-05-04T14:18:53.774Z,2.10
2018-05-04T14:21:19.885Z,2.12
2018-05-04T14:23:46.733Z,1.67
2018-05-04T14:26:12.841Z,1.80
2018-05-04T14:28:39.682Z,1.62
2018-05-04T14:31:06.540Z,1.87
2018-05-04T14:33:33.432Z,1.90
2018-05-04T14:35:59.505Z,1.87
2018-05-04T14:38:26.361Z,1.70
2018-05-04T14:40:52.480Z,2.10
2018-05-04T14:43:18.578Z,2.00
2018-05-04T14:45:44.687Z,2.00
2018-05-04T14:48:10.795Z,2.12
2018-05-04T14:50:36.926Z,2.15
2018-05-04T14:53:03.040Z,1.75
2018-05-04T14:55:29.147Z,1.80
2018-05-04T14:57:55.253Z,1.90
2018-05-04T15:00:22.099Z,1.77
2018-05-04T15:02:48.955Z,2.20
2018-05-04T15:05:15.054Z,1.73
2018-05-04T15:07:41.179Z,2.17
2018-05-04T15:10:07.295Z,1.60
2018-05-04T15:12:33.402Z,1.80
2018-05-04T15:14:59.497Z,2.08
2018-05-04T15:17:25.614Z,1.73
2018-05-04T15:19:51.718Z,1.92
2018-05-04T15:22:18.578Z,1.80
2018-05-04T15:24:44.673Z,2.25
2018-05-04T15:27:12.262Z,2.10
2018-05-04T15:29:38.362Z,1.87
2018-05-04T15:32:04.473Z,2.03
2018-05-04T15:34:34.838Z,2.30
2018-05-04T15:37:00.937Z,2.00
2018-05-04T15:39:27.790Z,2.15
2018-05-04T15:41:53.885Z,3.00
2018-05-04T15:44:19.986Z,2.75
2018-05-04T15:46:46.090Z,2.25
2018-05-04T15:49:18.181Z,2.35
2018-05-04T15:51:53.668Z,2.00
2018-05-04T15:54:19.769Z,1.90
2018-05-04T15:56:45.871Z,2.05
2018-05-04T15:59:11.992Z,1.73
2018-05-04T16:01:38.105Z,2.00
2018-05-04T16:04:04.207Z,1.95
2018-05-04T16:06:31.058Z,2.03
2018-05-04T16:08:57.893Z,1.77
2018-05-04T16:11:24.750Z,1.85
2018-05-04T16:13:50.853Z,2.03
2018-05-04T16:16:16.973Z,2.10
2018-05-04T16:18:43.078Z,2.17
2018-05-04T16:21:09.194Z,1.90
2018-05-04T16:23:35.286Z,2.40
2018-05-04T16:26:01.394Z,2.10
2018-05-04T16:28:28.253Z,1.58
2018-05-04T16:30:55.107Z,1.80
2018-05-04T16:33:21.222Z,2.22
2018-05-04T16:35:47.345Z,2.15
2018-05-04T16:38:14.189Z,2.10
2018-05-04T16:40:41.039Z,2.20
2018-05-04T16:43:07.142Z,1.90
2018-05-04T16:45:33.246Z,2.37
2018-05-04T16:48:05.354Z,2.30
2018-05-04T16:50:31.564Z,2.10
2018-05-04T16:52:57.593Z,2.22
2018-05-04T16:55:24.442Z,2.05
2018-05-04T16:57:51.317Z,2.10
2018-05-04T17:00:17.426Z,2.47
2018-05-04T17:02:43.530Z,2.15
2018-05-04T17:05:10.379Z,2.10
2018-05-04T17:07:37.241Z,2.17
2018-05-04T17:10:03.350Z,2.53
2018-05-04T17:12:30.209Z,2.53
2018-05-04T17:14:56.322Z,2.40
2018-05-04T17:17:22.430Z,2.67
2018-05-04T17:19:48.551Z,2.30
2018-05-04T17:22:15.450Z,2.00
2018-05-04T17:24:41.533Z,1.95
2018-05-04T17:27:08.410Z,2.20
2018-05-04T17:29:34.523Z,1.98
2018-05-04T17:32:00.629Z,2.00
2018-05-04T17:34:27.467Z,1.93
2018-05-04T17:36:53.579Z,2.10
2018-05-04T17:39:19.685Z,2.10
2018-05-04T17:41:45.790Z,2.33
2018-05-04T17:44:11.893Z,1.97
2018-05-04T17:46:37.995Z,2.10
2018-05-04T17:49:04.849Z,2.50
2018-05-04T17:51:31.699Z,2.53
2018-05-04T17:53:58.551Z,2.63
2018-05-04T17:56:24.646Z,2.50
2018-05-04T17:59:01.409Z,2.40
2018-05-04T18:01:27.526Z,2.47
2018-05-04T18:03:53.634Z,2.70
2018-05-04T18:06:19.727Z,2.77
2018-05-04T18:08:45.844Z,2.40
2018-05-04T18:11:29.777Z,2.60
2018-05-04T18:14:23.420Z,2.50
2018-05-04T18:17:10.182Z,2.97
2018-05-04T18:19:36.353Z,3.17
2018-05-04T18:22:02.424Z,3.00
2018-05-04T18:24:56.539Z,2.60
2018-05-04T18:27:29.550Z,3.50
2018-05-04T18:29:55.649Z,2.80
2018-05-04T18:32:21.750Z,3.23
2018-05-04T18:34:52.202Z,3.90
2018-05-04T18:37:19.350Z,3.50
2018-05-04T18:39:45.454Z,2.90
2018-05-04T18:42:11.570Z,3.20
2018-05-04T18:44:38.420Z,3.40
2018-05-04T18:47:05.257Z,4.00
2018-05-04T18:49:32.093Z,3.33
2018-05-04T18:51:58.948Z,3.90
2018-05-04T18:54:25.146Z,3.67
2018-05-04T18:56:51.929Z,3.50
2018-05-04T18:59:19.024Z,3.53
2018-05-04T19:01:45.125Z,3.40
2018-05-04T19:04:11.226Z,3.10
2018-05-04T19:06:37.334Z,3.40
2018-05-04T19:09:05.106Z,3.20
2018-05-04T19:11:31.954Z,2.93
2018-05-04T19:13:58.790Z,3.27
2018-05-04T19:19:35.958Z,2.90
2018-05-04T19:22:02.063Z,3.23
2018-05-04T19:24:28.161Z,3.27
2018-05-04T19:26:54.947Z,3.30
2018-05-04T19:29:21.041Z,3.07
2018-05-04T19:31:47.143Z,2.80
2018-05-04T19:34:14.821Z,2.87
2018-05-04T19:36:40.924Z,3.33
2018-05-04T19:39:07.782Z,3.37
2018-05-04T19:41:34.622Z,3.40
2018-05-04T19:44:01.470Z,3.30
2018-05-04T19:46:28.313Z,3.50
2018-05-04T19:48:55.157Z,3.33
2018-05-04T19:51:22.007Z,3.30
2018-05-04T19:53:48.123Z,3.00
2018-05-04T19:56:25.663Z,3.80
2018-05-04T19:58:51.841Z,3.10
2018-05-04T20:01:17.873Z,3.23
2018-05-04T20:03:43.990Z,3.10
2018-05-04T20:06:10.833Z,3.00
2018-05-04T20:08:37.671Z,3.27
2018-05-04T20:11:04.500Z,3.60
2018-05-04T20:13:30.585Z,3.00
2018-05-04T20:15:56.675Z,3.30
2018-05-04T20:18:22.769Z,3.60
2018-05-04T20:20:48.873Z,3.27
2018-05-04T20:23:14.959Z,3.60
2018-05-04T20:25:41.054Z,2.80
2018-05-04T20:28:07.136Z,3.37
2018-05-04T20:30:33.238Z,3.47
2018-05-04T20:32:59.330Z,3.40
2018-05-04T20:35:25.416Z,3.90
2018-05-04T20:37:51.510Z,3.20
2018-05-04T20:40:17.619Z,3.30
2018-05-04T20:42:51.070Z,3.57
2018-05-04T20:45:17.166Z,3.10
2018-05-04T20:47:43.262Z,3.30
2018-05-04T20:50:09.349Z,3.53
2018-05-04T20:52:35.451Z,3.30
2018-05-04T20:55:01.546Z,3.17
2018-05-04T20:57:28.386Z,3.47
2018-05-04T20:59:55.222Z,3.27
2018-05-04T21:02:21.318Z,3.33
2018-05-04T21:04:47.422Z,3.00
2018-05-04T21:07:13.528Z,3.10
2018-05-04T21:09:39.621Z,3.10
2018-05-04T21:12:05.714Z,2.90
2018-05-04T21:20:33.021Z,3.00
2018-05-04T21:22:59.122Z,2.70
2018-05-04T21:28:28.934Z,2.70
2018-05-04T21:31:01.230Z,3.13
2018-05-04T21:33:27.323Z,2.80
2018-05-04T21:35:54.149Z,3.23
2018-05-04T21:38:21.502Z,3.07
2018-05-04T21:40:58.538Z,2.37
2018-05-04T21:43:24.638Z,2.80
2018-05-04T21:45:54.749Z,2.70
2018-05-04T21:48:21.590Z,2.60
2018-05-04T21:50:48.429Z,2.93
2018-05-04T21:53:15.298Z,2.40
2018-05-04T21:55:48.102Z,2.60
2018-05-04T21:58:20.487Z,2.57
2018-05-04T22:00:47.350Z,3.10
2018-05-04T22:03:17.413Z,2.60
2018-05-04T22:05:43.530Z,2.87
2018-05-04T22:08:09.636Z,2.80
2018-05-04T22:10:36.485Z,2.77
2018-05-04T22:13:03.327Z,2.50
2018-05-04T22:15:31.813Z,2.50
2018-05-04T22:17:58.655Z,2.90
2018-05-04T22:20:25.519Z,2.93
2018-05-04T22:22:56.449Z,3.37
2018-05-04T22:25:22.579Z,3.13
2018-05-04T22:28:08.231Z,2.50
2018-05-04T22:30:35.082Z,2.90
2018-05-04T22:33:01.934Z,2.93
2018-05-04T22:35:28.785Z,2.80
2018-05-04T22:37:55.630Z,2.00
2018-05-04T22:40:22.797Z,2.33
2018-05-04T22:42:55.417Z,2.50
2018-05-04T22:45:23.018Z,2.20
2018-05-04T22:50:55.226Z,2.47
2018-05-04T22:53:32.126Z,2.57
2018-05-04T22:56:05.532Z,2.23
2018-05-04T22:58:41.887Z,2.50
2018-05-04T23:01:32.654Z,2.53
2018-05-04T23:03:58.745Z,2.50
2018-05-04T23:06:26.947Z,2.80
2018-05-04T23:09:07.046Z,2.53
2018-05-04T23:11:34.550Z,2.50
2018-05-04T23:14:01.380Z,2.77
2018-05-04T23:16:27.477Z,2.50
2018-05-04T23:18:53.565Z,2.73
2018-05-04T23:21:19.661Z,3.00
2018-05-04T23:23:45.749Z,2.80
2018-05-04T23:26:11.845Z,2.83
2018-05-04T23:29:05.253Z,2.30
2018-05-04T23:31:31.351Z,2.10
2018-05-04T23:37:12.731Z,2.40
2018-05-04T23:39:38.824Z,2.87
2018-05-04T23:42:04.901Z,2.50
2018-05-04T23:44:30.998Z,2.67
2018-05-04T23:46:57.842Z,2.80
2018-05-04T23:49:24.686Z,2.83
2018-05-04T23:51:51.506Z,2.50
2018-05-04T23:54:17.606Z,2.83
2018-05-04T23:56:43.698Z,2.80
2018-05-04T23:59:10.465Z,2.70
